createdAt,value
2019-02-06T00:00:11.662Z,1017.73
2019-02-06T00:01:11.651Z,1017.75
2019-02-06T00:02:11.641Z,1017.73
2019-02-06T00:03:11.628Z,1017.71
2019-02-06T00:04:11.618Z,1017.67
2019-02-06T00:05:14.388Z,1017.66
2019-02-06T00:06:11.602Z,1017.62
2019-02-06T00:07:11.590Z,1017.66
2019-02-06T00:08:11.580Z,1017.65
2019-02-06T00:09:11.578Z,1017.67
2019-02-06T00:10:11.561Z,1017.69
2019-02-06T00:11:11.557Z,1017.70
2019-02-06T00:12:11.542Z,1017.73
2019-02-06T00:13:11.533Z,1017.73
2019-02-06T00:14:11.522Z,1017.71
2019-02-06T00:15:11.516Z,1017.75
2019-02-06T00:16:11.504Z,1017.75
2019-02-06T00:17:11.519Z,1017.76
2019-02-06T00:18:11.516Z,1017.72
2019-02-06T00:19:11.479Z,1017.77
2019-02-06T00:20:11.472Z,1017.77
2019-02-06T00:21:11.455Z,1017.76
2019-02-06T00:22:11.446Z,1017.72
2019-02-06T00:23:11.445Z,1017.69
2019-02-06T00:24:11.426Z,1017.66
2019-02-06T00:25:11.421Z,1017.66
2019-02-06T00:26:11.412Z,1017.64
2019-02-06T00:27:11.400Z,1017.62
2019-02-06T00:28:11.391Z,1017.58
2019-02-06T00:29:11.384Z,1017.61
2019-02-06T00:30:11.370Z,1017.54
2019-02-06T00:31:11.360Z,1017.58
2019-02-06T00:32:11.356Z,1017.56
2019-02-06T00:33:11.346Z,1017.57
2019-02-06T00:34:11.337Z,1017.62
2019-02-06T00:35:11.325Z,1017.57
2019-02-06T00:36:11.315Z,1017.59
2019-02-06T00:37:11.306Z,1017.55
2019-02-06T00:38:11.295Z,1017.53
2019-02-06T00:39:11.286Z,1017.54
2019-02-06T00:40:11.278Z,1017.54
2019-02-06T00:41:11.267Z,1017.59
2019-02-06T00:42:11.257Z,1017.53
2019-02-06T00:43:11.245Z,1017.54
2019-02-06T00:44:11.231Z,1017.52
2019-02-06T00:45:11.227Z,1017.52
2019-02-06T00:46:11.212Z,1017.54
2019-02-06T00:47:11.202Z,1017.50
2019-02-06T00:48:11.195Z,1017.49
2019-02-06T00:49:11.188Z,1017.48
2019-02-06T00:50:11.178Z,1017.47
2019-02-06T00:51:11.167Z,1017.50
2019-02-06T00:52:11.153Z,1017.47
2019-02-06T00:53:11.148Z,1017.48
2019-02-06T00:54:11.136Z,1017.47
2019-02-06T00:55:11.128Z,1017.49
2019-02-06T00:56:11.117Z,1017.51
2019-02-06T00:57:11.101Z,1017.47
2019-02-06T00:58:11.093Z,1017.47
2019-02-06T00:59:11.084Z,1017.44
2019-02-06T01:00:11.077Z,1017.43
2019-02-06T01:01:11.063Z,1017.38
2019-02-06T01:02:11.056Z,1017.36
2019-02-06T01:03:11.041Z,1017.38
2019-02-06T01:04:11.034Z,1017.37
2019-02-06T01:05:11.023Z,1017.37
2019-02-06T01:06:11.017Z,1017.39
2019-02-06T01:07:11.005Z,1017.31
2019-02-06T01:08:11.001Z,1017.31
2019-02-06T01:09:10.989Z,1017.30
2019-02-06T01:10:10.978Z,1017.28
2019-02-06T01:11:10.960Z,1017.27
2019-02-06T01:12:10.955Z,1017.20
2019-02-06T01:13:10.944Z,1017.17
2019-02-06T01:14:10.930Z,1017.18
2019-02-06T01:15:10.925Z,1017.17
2019-02-06T01:16:10.918Z,1017.15
2019-02-06T01:17:10.907Z,1017.11
2019-02-06T01:18:10.895Z,1017.13
2019-02-06T01:19:10.890Z,1017.12
2019-02-06T01:20:10.875Z,1017.13
2019-02-06T01:21:10.864Z,1017.13
2019-02-06T01:22:10.851Z,1017.09
2019-02-06T01:23:10.846Z,1017.13
2019-02-06T01:24:10.839Z,1017.08
2019-02-06T01:25:10.825Z,1017.07
2019-02-06T01:26:10.836Z,1017.06
2019-02-06T01:27:10.808Z,1017.08
2019-02-06T01:28:10.793Z,1017.06
2019-02-06T01:29:10.785Z,1017.07
2019-02-06T01:30:10.778Z,1017.06
2019-02-06T01:31:23.498Z,1017.07
2019-02-06T01:32:10.757Z,1017.06
2019-02-06T01:33:10.745Z,1017.04
2019-02-06T01:34:10.738Z,1017.06
2019-02-06T01:35:10.926Z,1017.08
2019-02-06T01:36:10.718Z,1017.11
2019-02-06T01:37:10.706Z,1017.06
2019-02-06T01:38:10.692Z,1017.06
2019-02-06T01:39:10.776Z,1017.04
2019-02-06T01:40:10.681Z,1017.03
2019-02-06T01:41:10.662Z,1017.05
2019-02-06T01:42:10.654Z,1017.12
2019-02-06T01:43:10.648Z,1017.12
2019-02-06T01:44:10.637Z,1017.11
2019-02-06T01:45:10.626Z,1017.10
2019-02-06T01:46:10.613Z,1017.13
2019-02-06T01:47:10.606Z,1017.16
2019-02-06T01:48:10.594Z,1017.13
2019-02-06T01:49:10.584Z,1017.16
2019-02-06T01:50:10.573Z,1017.12
2019-02-06T01:51:10.766Z,1017.11
2019-02-06T01:52:10.557Z,1017.03
2019-02-06T01:53:10.546Z,1017.01
2019-02-06T01:54:10.536Z,1017.02
2019-02-06T01:55:10.528Z,1017.04
2019-02-06T01:56:10.513Z,1017.03
2019-02-06T01:57:10.507Z,1016.98
2019-02-06T01:58:10.492Z,1016.94
2019-02-06T01:59:10.482Z,1016.93
2019-02-06T02:00:10.472Z,1016.90
2019-02-06T02:01:10.460Z,1016.91
2019-02-06T02:02:10.456Z,1016.94
2019-02-06T02:03:10.443Z,1016.97
2019-02-06T02:04:10.635Z,1016.96
2019-02-06T02:05:10.424Z,1016.91
2019-02-06T02:06:10.407Z,1016.94
2019-02-06T02:07:10.401Z,1016.92
2019-02-06T02:08:10.386Z,1016.89
2019-02-06T02:09:10.378Z,1016.88
2019-02-06T02:10:10.369Z,1016.87
2019-02-06T02:11:10.358Z,1016.86
2019-02-06T02:12:10.346Z,1016.85
2019-02-06T02:13:10.337Z,1016.84
2019-02-06T02:14:10.329Z,1016.82
2019-02-06T02:15:10.319Z,1016.81
2019-02-06T02:16:10.308Z,1016.81
2019-02-06T02:17:10.295Z,1016.85
2019-02-06T02:18:10.286Z,1016.84
2019-02-06T02:19:10.272Z,1016.83
2019-02-06T02:20:10.268Z,1016.84
2019-02-06T02:21:10.254Z,1016.84
2019-02-06T02:22:10.240Z,1016.88
2019-02-06T02:23:10.231Z,1016.87
2019-02-06T02:24:10.222Z,1016.85
2019-02-06T02:25:10.214Z,1016.82
2019-02-06T02:26:10.206Z,1016.84
2019-02-06T02:27:10.189Z,1016.84
2019-02-06T02:28:10.182Z,1016.82
2019-02-06T02:29:10.171Z,1016.78
2019-02-06T02:30:10.164Z,1016.72
2019-02-06T02:31:10.152Z,1016.69
2019-02-06T02:32:10.141Z,1016.69
2019-02-06T02:33:10.133Z,1016.63
2019-02-06T02:34:10.120Z,1016.65
2019-02-06T02:35:10.113Z,1016.69
2019-02-06T02:36:15.779Z,1016.69
2019-02-06T02:37:10.085Z,1016.66
2019-02-06T02:38:10.078Z,1016.59
2019-02-06T02:39:10.065Z,1016.56
2019-02-06T02:40:10.055Z,1016.54
2019-02-06T02:41:10.050Z,1016.53
2019-02-06T02:42:10.038Z,1016.54
2019-02-06T02:43:10.031Z,1016.47
2019-02-06T02:44:10.019Z,1016.46
2019-02-06T02:45:10.001Z,1016.42
2019-02-06T02:46:09.996Z,1016.40
2019-02-06T02:47:09.989Z,1016.34
2019-02-06T02:48:09.974Z,1016.31
2019-02-06T02:49:09.964Z,1016.26
2019-02-06T02:50:09.953Z,1016.22
2019-02-06T02:51:09.944Z,1016.16
2019-02-06T02:52:09.936Z,1016.18
2019-02-06T02:53:09.923Z,1016.14
2019-02-06T02:54:09.912Z,1016.14
2019-02-06T02:55:09.919Z,1016.18
2019-02-06T02:56:09.892Z,1016.17
2019-02-06T02:57:09.882Z,1016.19
2019-02-06T02:58:09.873Z,1016.24
2019-02-06T02:59:09.864Z,1016.21
2019-02-06T03:00:09.856Z,1016.20
2019-02-06T03:01:09.843Z,1016.20
2019-02-06T03:02:09.829Z,1016.12
2019-02-06T03:03:09.818Z,1016.09
2019-02-06T03:04:09.807Z,1016.04
2019-02-06T03:05:09.802Z,1016.06
2019-02-06T03:06:09.788Z,1016.00
2019-02-06T03:07:09.778Z,1015.95
2019-02-06T03:08:09.772Z,1015.98
2019-02-06T03:09:09.760Z,1016.00
2019-02-06T03:10:09.758Z,1015.96
2019-02-06T03:11:09.732Z,1015.96
2019-02-06T03:12:09.726Z,1015.95
2019-02-06T03:13:09.721Z,1015.92
2019-02-06T03:14:09.708Z,1015.93
2019-02-06T03:15:09.694Z,1015.93
2019-02-06T03:16:09.682Z,1015.88
2019-02-06T03:17:09.681Z,1015.87
2019-02-06T03:18:09.667Z,1015.84
2019-02-06T03:19:09.653Z,1015.78
2019-02-06T03:20:09.646Z,1015.79
2019-02-06T03:21:09.642Z,1015.78
2019-02-06T03:22:09.619Z,1015.72
2019-02-06T03:23:09.616Z,1015.72
2019-02-06T03:24:09.608Z,1015.67
2019-02-06T03:25:09.592Z,1015.64
2019-02-06T03:26:09.786Z,1015.63
2019-02-06T03:27:09.572Z,1015.58
2019-02-06T03:28:09.563Z,1015.55
2019-02-06T03:29:09.551Z,1015.50
2019-02-06T03:30:09.539Z,1015.47
2019-02-06T03:31:09.541Z,1015.43
2019-02-06T03:32:09.519Z,1015.45
2019-02-06T03:33:09.512Z,1015.38
2019-02-06T03:34:09.501Z,1015.38
2019-02-06T03:35:09.497Z,1015.44
2019-02-06T03:36:09.480Z,1015.37
2019-02-06T03:37:09.469Z,1015.39
2019-02-06T03:38:09.461Z,1015.40
2019-02-06T03:39:09.451Z,1015.40
2019-02-06T03:40:09.443Z,1015.37
2019-02-06T03:41:09.427Z,1015.32
2019-02-06T03:42:09.418Z,1015.22
2019-02-06T03:43:09.412Z,1015.25
2019-02-06T03:44:09.400Z,1015.17
2019-02-06T03:45:09.389Z,1015.16
2019-02-06T03:46:09.374Z,1015.15
2019-02-06T03:47:09.393Z,1015.22
2019-02-06T03:48:09.358Z,1015.23
2019-02-06T03:49:09.350Z,1015.23
2019-02-06T03:50:09.362Z,1015.19
2019-02-06T03:51:09.324Z,1015.16
2019-02-06T03:52:09.321Z,1015.14
2019-02-06T03:53:09.324Z,1015.15
2019-02-06T03:54:09.308Z,1015.15
2019-02-06T03:55:09.318Z,1015.14
2019-02-06T03:56:09.277Z,1015.17
2019-02-06T03:57:09.309Z,1015.16
2019-02-06T03:58:09.256Z,1015.15
2019-02-06T03:59:09.245Z,1015.12
2019-02-06T04:00:09.236Z,1015.08
2019-02-06T04:01:11.385Z,1015.05
2019-02-06T04:02:09.218Z,1015.03
2019-02-06T04:03:09.312Z,1015.08
2019-02-06T04:04:09.197Z,1015.06
2019-02-06T04:05:09.181Z,1015.02
2019-02-06T04:06:09.176Z,1015.01
2019-02-06T04:07:09.165Z,1015.03
2019-02-06T04:08:09.151Z,1015.02
2019-02-06T04:09:09.144Z,1015.11
2019-02-06T04:10:09.133Z,1015.06
2019-02-06T04:11:09.124Z,1015.09
2019-02-06T04:12:09.113Z,1015.07
2019-02-06T04:13:09.102Z,1015.07
2019-02-06T04:14:09.094Z,1015.01
2019-02-06T04:15:09.189Z,1014.98
2019-02-06T04:16:09.075Z,1014.98
2019-02-06T04:17:09.061Z,1014.99
2019-02-06T04:18:09.054Z,1014.97
2019-02-06T04:19:09.040Z,1015.03
2019-02-06T04:20:09.034Z,1015.08
2019-02-06T04:21:09.224Z,1015.11
2019-02-06T04:22:09.009Z,1015.12
2019-02-06T04:24:08.987Z,1015.06
2019-02-06T04:25:08.975Z,1015.02
2019-02-06T04:26:08.970Z,1015.05
2019-02-06T04:27:08.954Z,1014.99
2019-02-06T04:28:08.949Z,1014.98
2019-02-06T04:29:08.945Z,1014.98
2019-02-06T04:30:08.942Z,1014.96
2019-02-06T04:31:08.921Z,1014.96
2019-02-06T04:32:08.906Z,1014.98
2019-02-06T04:33:08.894Z,1014.98
2019-02-06T04:34:08.885Z,1014.95
2019-02-06T04:35:09.056Z,1014.98
2019-02-06T04:36:08.865Z,1014.93
2019-02-06T04:37:08.855Z,1014.89
2019-02-06T04:38:08.851Z,1014.88
2019-02-06T04:39:08.831Z,1014.87
2019-02-06T04:40:08.821Z,1014.88
2019-02-06T04:41:08.810Z,1014.87
2019-02-06T04:42:08.808Z,1014.88
2019-02-06T04:43:08.792Z,1014.86
2019-02-06T04:44:08.780Z,1014.82
2019-02-06T04:45:08.776Z,1014.83
2019-02-06T04:46:08.761Z,1014.87
2019-02-06T04:47:08.863Z,1014.89
2019-02-06T04:48:08.747Z,1014.88
2019-02-06T04:49:08.735Z,1014.89
2019-02-06T04:50:08.725Z,1014.91
2019-02-06T04:51:08.728Z,1014.85
2019-02-06T04:52:08.701Z,1014.86
2019-02-06T04:53:08.688Z,1014.81
2019-02-06T04:54:08.678Z,1014.79
2019-02-06T04:55:08.673Z,1014.84
2019-02-06T04:56:08.746Z,1014.84
2019-02-06T04:57:09.510Z,1014.82
2019-02-06T04:58:08.640Z,1014.79
2019-02-06T04:59:08.630Z,1014.80
2019-02-06T05:00:08.620Z,1014.75
2019-02-06T05:01:08.606Z,1014.78
2019-02-06T05:02:08.598Z,1014.80
2019-02-06T05:03:08.607Z,1014.78
2019-02-06T05:04:08.576Z,1014.75
2019-02-06T05:05:08.568Z,1014.75
2019-02-06T05:06:08.559Z,1014.78
2019-02-06T05:07:18.741Z,1014.75
2019-02-06T05:08:08.539Z,1014.76
2019-02-06T05:09:08.531Z,1014.71
2019-02-06T05:10:08.517Z,1014.74
2019-02-06T05:11:08.507Z,1014.71
2019-02-06T05:12:09.638Z,1014.68
2019-02-06T05:13:08.686Z,1014.64
2019-02-06T05:14:08.479Z,1014.64
2019-02-06T05:15:08.471Z,1014.59
2019-02-06T05:16:08.456Z,1014.61
2019-02-06T05:17:08.446Z,1014.56
2019-02-06T05:18:08.434Z,1014.61
2019-02-06T05:19:08.429Z,1014.60
2019-02-06T05:20:08.414Z,1014.53
2019-02-06T05:21:08.405Z,1014.52
2019-02-06T05:22:08.396Z,1014.49
2019-02-06T05:23:08.385Z,1014.51
2019-02-06T05:24:08.372Z,1014.48
2019-02-06T05:25:08.361Z,1014.51
2019-02-06T05:26:08.350Z,1014.52
2019-02-06T05:27:08.340Z,1014.46
2019-02-06T05:28:08.332Z,1014.47
2019-02-06T05:29:08.316Z,1014.46
2019-02-06T05:30:08.306Z,1014.39
2019-02-06T05:31:08.301Z,1014.45
2019-02-06T05:32:08.289Z,1014.44
2019-02-06T05:33:08.281Z,1014.42
2019-02-06T05:34:08.272Z,1014.39
2019-02-06T05:35:08.257Z,1014.43
2019-02-06T05:36:08.245Z,1014.39
2019-02-06T05:37:08.238Z,1014.39
2019-02-06T05:38:08.448Z,1014.36
2019-02-06T05:39:08.320Z,1014.29
2019-02-06T05:40:08.205Z,1014.30
2019-02-06T05:41:08.198Z,1014.24
2019-02-06T05:42:08.182Z,1014.26
2019-02-06T05:43:08.180Z,1014.22
2019-02-06T05:44:08.162Z,1014.25
2019-02-06T05:45:08.159Z,1014.24
2019-02-06T05:46:08.141Z,1014.21
2019-02-06T05:47:08.135Z,1014.19
2019-02-06T05:48:08.129Z,1014.16
2019-02-06T05:49:08.112Z,1014.16
2019-02-06T05:50:08.108Z,1014.19
2019-02-06T05:51:08.094Z,1014.21
2019-02-06T05:52:08.089Z,1014.23
2019-02-06T05:53:08.071Z,1014.21
2019-02-06T05:54:08.066Z,1014.20
2019-02-06T05:55:08.052Z,1014.20
2019-02-06T05:56:08.039Z,1014.22
2019-02-06T05:57:08.031Z,1014.25
2019-02-06T05:59:08.007Z,1014.24
2019-02-06T06:00:08.003Z,1014.23
2019-02-06T06:01:07.987Z,1014.24
2019-02-06T06:02:07.980Z,1014.22
2019-02-06T06:03:07.974Z,1014.25
2019-02-06T06:04:08.087Z,1014.26
2019-02-06T06:05:07.949Z,1014.28
2019-02-06T06:06:07.939Z,1014.29
2019-02-06T06:07:07.930Z,1014.32
2019-02-06T06:08:07.917Z,1014.35
2019-02-06T06:09:07.945Z,1014.35
2019-02-06T06:10:07.898Z,1014.31
2019-02-06T06:11:07.892Z,1014.37
2019-02-06T06:12:07.877Z,1014.37
2019-02-06T06:13:07.865Z,1014.35
2019-02-06T06:14:07.854Z,1014.30
2019-02-06T06:15:07.846Z,1014.31
2019-02-06T06:16:07.833Z,1014.30
2019-02-06T06:17:07.826Z,1014.30
2019-02-06T06:18:07.814Z,1014.27
2019-02-06T06:19:07.805Z,1014.28
2019-02-06T06:20:07.794Z,1014.25
2019-02-06T06:21:07.781Z,1014.24
2019-02-06T06:22:07.770Z,1014.20
2019-02-06T06:23:07.762Z,1014.21
2019-02-06T06:24:09.174Z,1014.15
2019-02-06T06:25:07.758Z,1014.15
2019-02-06T06:26:07.736Z,1014.12
2019-02-06T06:27:07.753Z,1014.18
2019-02-06T06:28:07.718Z,1014.19
2019-02-06T06:29:07.700Z,1014.21
2019-02-06T06:30:07.692Z,1014.22
2019-02-06T06:31:07.683Z,1014.22
2019-02-06T06:32:07.668Z,1014.27
2019-02-06T06:33:07.664Z,1014.20
2019-02-06T06:34:07.666Z,1014.18
2019-02-06T06:35:07.643Z,1014.19
2019-02-06T06:36:07.634Z,1014.20
2019-02-06T06:37:07.620Z,1014.21
2019-02-06T06:38:07.611Z,1014.19
2019-02-06T06:39:07.597Z,1014.19
2019-02-06T06:40:07.593Z,1014.16
2019-02-06T06:41:07.580Z,1014.19
2019-02-06T06:42:07.568Z,1014.23
2019-02-06T06:43:07.566Z,1014.23
2019-02-06T06:44:07.549Z,1014.17
2019-02-06T06:45:07.538Z,1014.19
2019-02-06T06:46:07.527Z,1014.21
2019-02-06T06:47:07.521Z,1014.20
2019-02-06T06:48:07.514Z,1014.22
2019-02-06T06:49:07.500Z,1014.18
2019-02-06T06:50:07.484Z,1014.17
2019-02-06T06:51:07.476Z,1014.11
2019-02-06T06:52:07.465Z,1014.11
2019-02-06T06:53:07.455Z,1014.09
2019-02-06T06:54:07.452Z,1014.05
2019-02-06T06:55:07.529Z,1014.02
2019-02-06T06:56:07.424Z,1014.07
2019-02-06T06:57:07.416Z,1014.06
2019-02-06T06:58:07.409Z,1014.16
2019-02-06T06:59:07.396Z,1014.13
2019-02-06T07:00:07.389Z,1014.12
2019-02-06T07:01:07.380Z,1014.15
2019-02-06T07:02:07.364Z,1014.12
2019-02-06T07:03:07.358Z,1014.13
2019-02-06T07:04:07.343Z,1014.09
2019-02-06T07:05:07.335Z,1014.07
2019-02-06T07:06:07.324Z,1014.04
2019-02-06T07:07:07.320Z,1014.04
2019-02-06T07:08:10.124Z,1014.04
2019-02-06T07:09:07.295Z,1014.02
2019-02-06T07:10:07.284Z,1014.04
2019-02-06T07:11:07.273Z,1014.02
2019-02-06T07:12:07.268Z,1013.98
2019-02-06T07:13:07.253Z,1013.97
2019-02-06T07:14:07.246Z,1014.00
2019-02-06T07:15:07.233Z,1014.03
2019-02-06T07:16:07.223Z,1014.05
2019-02-06T07:17:07.218Z,1014.05
2019-02-06T07:18:07.206Z,1014.03
2019-02-06T07:19:07.197Z,1014.04
2019-02-06T07:20:07.180Z,1014.01
2019-02-06T07:21:07.173Z,1014.01
2019-02-06T07:22:07.159Z,1013.99
2019-02-06T07:23:07.154Z,1014.00
2019-02-06T07:24:07.144Z,1014.03
2019-02-06T07:25:07.128Z,1014.00
2019-02-06T07:26:07.126Z,1013.99
2019-02-06T07:27:07.116Z,1013.97
2019-02-06T07:28:07.104Z,1014.01
2019-02-06T07:29:07.088Z,1013.98
2019-02-06T07:30:07.078Z,1013.98
2019-02-06T07:31:07.073Z,1013.97
2019-02-06T07:32:07.066Z,1013.99
2019-02-06T07:33:07.052Z,1013.97
2019-02-06T07:34:07.045Z,1013.96
2019-02-06T07:35:07.031Z,1013.95
2019-02-06T07:36:07.022Z,1013.95
2019-02-06T07:37:07.011Z,1013.97
2019-02-06T07:38:06.997Z,1013.99
2019-02-06T07:39:06.995Z,1013.99
2019-02-06T07:40:06.982Z,1013.97
2019-02-06T07:41:06.971Z,1013.95
2019-02-06T07:42:06.959Z,1013.94
2019-02-06T07:43:06.953Z,1013.89
2019-02-06T07:44:06.949Z,1013.87
2019-02-06T07:45:06.929Z,1013.88
2019-02-06T07:46:06.921Z,1013.87
2019-02-06T07:47:06.913Z,1013.84
2019-02-06T07:48:06.905Z,1013.84
2019-02-06T07:49:06.894Z,1013.82
2019-02-06T07:50:07.081Z,1013.84
2019-02-06T07:51:06.874Z,1013.86
2019-02-06T07:52:06.869Z,1013.80
2019-02-06T07:53:06.856Z,1013.85
2019-02-06T07:54:06.844Z,1013.82
2019-02-06T07:55:06.829Z,1013.86
2019-02-06T07:56:06.821Z,1013.84
2019-02-06T07:57:06.811Z,1013.84
2019-02-06T07:58:06.802Z,1013.84
2019-02-06T07:59:06.791Z,1013.80
2019-02-06T08:00:06.788Z,1013.79
2019-02-06T08:01:06.774Z,1013.80
2019-02-06T08:02:06.761Z,1013.79
2019-02-06T08:03:06.762Z,1013.78
2019-02-06T08:04:06.748Z,1013.82
2019-02-06T08:05:06.736Z,1013.72
2019-02-06T08:06:06.722Z,1013.75
2019-02-06T08:07:06.717Z,1013.75
2019-02-06T08:08:06.707Z,1013.72
2019-02-06T08:09:06.697Z,1013.74
2019-02-06T08:10:06.688Z,1013.73
2019-02-06T08:11:06.674Z,1013.74
2019-02-06T08:12:06.664Z,1013.75
2019-02-06T08:13:06.659Z,1013.78
2019-02-06T08:14:06.650Z,1013.76
2019-02-06T08:15:06.638Z,1013.76
2019-02-06T08:16:07.406Z,1013.72
2019-02-06T08:17:06.821Z,1013.73
2019-02-06T08:18:06.612Z,1013.69
2019-02-06T08:19:06.599Z,1013.71
2019-02-06T08:20:06.595Z,1013.80
2019-02-06T08:21:06.583Z,1013.74
2019-02-06T08:22:06.576Z,1013.80
2019-02-06T08:23:06.567Z,1013.81
2019-02-06T08:24:06.552Z,1013.92
2019-02-06T08:25:06.542Z,1013.78
2019-02-06T08:26:06.644Z,1013.90
2019-02-06T08:27:06.528Z,1013.87
2019-02-06T08:28:06.517Z,1013.89
2019-02-06T08:29:06.502Z,1013.94
2019-02-06T08:30:06.499Z,1013.93
2019-02-06T08:31:06.486Z,1013.98
2019-02-06T08:32:06.476Z,1014.02
2019-02-06T08:33:06.470Z,1014.03
2019-02-06T08:34:06.459Z,1014.03
2019-02-06T08:35:06.446Z,1014.02
2019-02-06T08:36:06.442Z,1014.09
2019-02-06T08:37:06.429Z,1014.11
2019-02-06T08:38:06.424Z,1014.08
2019-02-06T08:39:06.415Z,1014.12
2019-02-06T08:40:06.400Z,1014.15
2019-02-06T08:41:06.395Z,1014.12
2019-02-06T08:42:06.384Z,1014.17
2019-02-06T08:43:06.377Z,1014.17
2019-02-06T08:44:06.372Z,1014.19
2019-02-06T08:45:06.361Z,1014.21
2019-02-06T08:46:06.363Z,1014.24
2019-02-06T08:47:06.336Z,1014.21
2019-02-06T08:48:06.332Z,1014.21
2019-02-06T08:49:06.319Z,1014.24
2019-02-06T08:50:06.313Z,1014.24
2019-02-06T08:52:06.290Z,1014.22
2019-02-06T08:53:06.286Z,1014.20
2019-02-06T08:54:06.476Z,1014.22
2019-02-06T08:55:06.269Z,1014.19
2019-02-06T08:56:06.256Z,1014.20
2019-02-06T08:57:06.245Z,1014.23
2019-02-06T08:58:06.245Z,1014.21
2019-02-06T08:59:06.231Z,1014.20
2019-02-06T09:00:06.226Z,1014.13
2019-02-06T09:01:06.215Z,1014.13
2019-02-06T09:02:06.200Z,1014.14
2019-02-06T09:03:06.209Z,1014.10
2019-02-06T09:04:06.187Z,1014.09
2019-02-06T09:05:07.630Z,1014.13
2019-02-06T09:06:06.172Z,1014.17
2019-02-06T09:07:06.157Z,1014.11
2019-02-06T09:08:06.150Z,1014.09
2019-02-06T09:09:06.140Z,1014.07
2019-02-06T09:10:06.137Z,1014.10
2019-02-06T09:11:06.127Z,1014.09
2019-02-06T09:12:06.123Z,1014.10
2019-02-06T09:13:06.109Z,1014.03
2019-02-06T09:14:06.138Z,1014.06
2019-02-06T09:15:06.097Z,1014.02
2019-02-06T09:16:06.086Z,1014.04
2019-02-06T09:17:06.079Z,1014.07
2019-02-06T09:18:06.070Z,1014.05
2019-02-06T09:19:06.057Z,1014.12
2019-02-06T09:21:06.048Z,1014.10
2019-02-06T09:22:06.040Z,1014.10
2019-02-06T09:23:06.027Z,1014.14
2019-02-06T09:24:06.018Z,1014.16
2019-02-06T09:25:06.009Z,1014.13
2019-02-06T09:26:06.004Z,1014.16
2019-02-06T09:28:05.991Z,1014.14
2019-02-06T09:29:05.980Z,1014.16
2019-02-06T09:30:05.969Z,1014.14
2019-02-06T09:31:05.961Z,1014.15
2019-02-06T09:32:05.961Z,1014.11
2019-02-06T09:33:05.948Z,1014.15
2019-02-06T09:34:05.942Z,1014.10
2019-02-06T09:35:05.931Z,1014.11
2019-02-06T09:36:05.928Z,1014.09
2019-02-06T09:37:05.918Z,1014.08
2019-02-06T09:38:06.117Z,1014.08
2019-02-06T09:39:11.594Z,1014.06
2019-02-06T09:40:05.896Z,1014.06
2019-02-06T09:41:05.886Z,1014.13
2019-02-06T09:42:05.878Z,1014.07
2019-02-06T09:43:05.875Z,1014.08
2019-02-06T09:44:05.867Z,1014.09
2019-02-06T09:45:05.861Z,1014.10
2019-02-06T09:46:05.852Z,1014.06
2019-02-06T09:47:05.845Z,1014.09
2019-02-06T09:48:05.838Z,1014.08
2019-02-06T09:49:05.825Z,1014.08
2019-02-06T09:50:05.825Z,1014.08
2019-02-06T09:51:05.819Z,1014.09
2019-02-06T09:52:05.811Z,1014.09
2019-02-06T09:53:05.800Z,1014.09
2019-02-06T09:54:05.793Z,1014.05
2019-02-06T09:55:05.786Z,1014.04
2019-02-06T09:56:05.780Z,1014.07
2019-02-06T09:57:05.774Z,1014.08
2019-02-06T09:58:05.804Z,1014.09
2019-02-06T09:59:05.760Z,1014.07
2019-02-06T10:00:05.745Z,1014.08
2019-02-06T10:01:05.736Z,1014.09
2019-02-06T10:02:05.731Z,1014.09
2019-02-06T10:03:05.724Z,1014.05
2019-02-06T10:04:05.718Z,1014.04
2019-02-06T10:05:05.714Z,1014.03
2019-02-06T10:06:05.701Z,1014.06
2019-02-06T10:07:05.689Z,1014.05
2019-02-06T10:08:05.686Z,1014.05
2019-02-06T10:09:05.677Z,1013.98
2019-02-06T10:10:05.668Z,1013.97
2019-02-06T10:11:05.769Z,1014.00
2019-02-06T10:12:05.652Z,1013.95
2019-02-06T10:13:05.644Z,1013.98
2019-02-06T10:14:05.642Z,1013.96
2019-02-06T10:15:05.633Z,1013.93
2019-02-06T10:16:05.625Z,1013.94
2019-02-06T10:17:05.617Z,1013.94
2019-02-06T10:18:05.606Z,1013.98
2019-02-06T10:19:05.601Z,1013.97
2019-02-06T10:20:05.597Z,1013.98
2019-02-06T10:21:05.582Z,1013.96
2019-02-06T10:22:05.578Z,1013.97
2019-02-06T10:23:05.576Z,1013.95
2019-02-06T10:24:05.563Z,1013.92
2019-02-06T10:25:05.553Z,1013.96
2019-02-06T10:26:05.550Z,1013.91
2019-02-06T10:27:05.542Z,1013.94
2019-02-06T10:28:05.536Z,1013.96
2019-02-06T10:29:05.523Z,1013.93
2019-02-06T10:30:05.513Z,1013.96
2019-02-06T10:31:05.510Z,1013.92
2019-02-06T10:32:05.498Z,1013.92
2019-02-06T10:33:05.490Z,1013.98
2019-02-06T10:34:05.487Z,1013.95
2019-02-06T10:35:05.478Z,1013.93
2019-02-06T10:36:05.468Z,1013.91
2019-02-06T10:37:05.467Z,1013.91
2019-02-06T10:38:05.454Z,1013.90
2019-02-06T10:39:05.445Z,1013.93
2019-02-06T10:40:05.716Z,1013.92
2019-02-06T10:41:05.429Z,1013.90
2019-02-06T10:42:05.425Z,1013.97
2019-02-06T10:43:05.421Z,1013.91
2019-02-06T10:44:05.409Z,1013.89
2019-02-06T10:45:05.405Z,1013.90
2019-02-06T10:46:05.396Z,1013.89
2019-02-06T10:47:05.390Z,1013.86
2019-02-06T10:48:05.381Z,1013.91
2019-02-06T10:49:05.375Z,1013.98
2019-02-06T10:50:05.366Z,1013.96
2019-02-06T10:51:05.356Z,1013.94
2019-02-06T10:52:05.354Z,1013.89
2019-02-06T10:53:05.344Z,1013.86
2019-02-06T10:54:05.335Z,1013.91
2019-02-06T10:55:05.326Z,1013.84
2019-02-06T10:56:05.320Z,1013.84
2019-02-06T10:57:05.312Z,1013.84
2019-02-06T10:58:05.304Z,1013.85
2019-02-06T10:59:05.295Z,1013.81
2019-02-06T11:00:05.288Z,1013.79
2019-02-06T11:01:05.282Z,1013.80
2019-02-06T11:03:05.266Z,1013.82
2019-02-06T11:04:05.260Z,1013.81
2019-02-06T11:05:05.251Z,1013.76
2019-02-06T11:06:05.241Z,1013.77
2019-02-06T11:07:08.079Z,1013.78
2019-02-06T11:08:05.224Z,1013.82
2019-02-06T11:09:05.417Z,1013.83
2019-02-06T11:10:05.210Z,1013.78
2019-02-06T11:11:05.208Z,1013.79
2019-02-06T11:12:05.199Z,1013.74
2019-02-06T11:13:05.187Z,1013.74
2019-02-06T11:14:05.179Z,1013.78
2019-02-06T11:15:05.172Z,1013.72
2019-02-06T11:16:05.171Z,1013.75
2019-02-06T11:17:05.158Z,1013.74
2019-02-06T11:18:05.154Z,1013.70
2019-02-06T11:19:05.222Z,1013.75
2019-02-06T11:20:05.136Z,1013.72
2019-02-06T11:21:05.130Z,1013.73
2019-02-06T11:22:05.119Z,1013.73
2019-02-06T11:23:05.115Z,1013.73
2019-02-06T11:24:05.104Z,1013.74
2019-02-06T11:25:05.105Z,1013.76
2019-02-06T11:26:05.094Z,1013.73
2019-02-06T11:27:05.087Z,1013.75
2019-02-06T11:28:05.277Z,1013.73
2019-02-06T11:29:05.074Z,1013.70
2019-02-06T11:30:05.062Z,1013.73
2019-02-06T11:31:05.056Z,1013.77
2019-02-06T11:32:05.049Z,1013.69
2019-02-06T11:33:05.043Z,1013.65
2019-02-06T11:34:05.034Z,1013.67
2019-02-06T11:35:05.030Z,1013.61
2019-02-06T11:36:05.023Z,1013.60
2019-02-06T11:37:05.015Z,1013.66
2019-02-06T11:38:05.003Z,1013.53
2019-02-06T11:39:05.006Z,1013.54
2019-02-06T11:40:04.992Z,1013.50
2019-02-06T11:41:05.052Z,1013.44
2019-02-06T11:42:04.974Z,1013.48
2019-02-06T11:43:04.967Z,1013.45
2019-02-06T11:44:04.963Z,1013.48
2019-02-06T11:45:04.962Z,1013.44
2019-02-06T11:46:04.943Z,1013.46
2019-02-06T11:47:04.946Z,1013.38
2019-02-06T11:48:04.933Z,1013.47
2019-02-06T11:49:04.922Z,1013.40
2019-02-06T11:50:04.918Z,1013.37
2019-02-06T11:51:04.915Z,1013.40
2019-02-06T11:52:04.903Z,1013.37
2019-02-06T11:53:04.905Z,1013.42
2019-02-06T11:54:04.896Z,1013.38
2019-02-06T11:55:04.884Z,1013.42
2019-02-06T11:56:04.876Z,1013.42
2019-02-06T11:57:04.867Z,1013.41
2019-02-06T11:58:04.866Z,1013.39
2019-02-06T11:59:04.860Z,1013.39
2019-02-06T12:00:04.851Z,1013.41
2019-02-06T12:01:04.841Z,1013.39
2019-02-06T12:02:04.835Z,1013.36
2019-02-06T12:03:04.826Z,1013.39
2019-02-06T12:04:04.824Z,1013.40
2019-02-06T12:05:04.815Z,1013.40
2019-02-06T12:06:04.811Z,1013.36
2019-02-06T12:07:04.804Z,1013.32
2019-02-06T12:08:04.796Z,1013.35
2019-02-06T12:09:04.787Z,1013.31
2019-02-06T12:10:09.765Z,1013.32
2019-02-06T12:11:04.775Z,1013.27